Terminal Aerodrome Forecast
Issued by NWS Shreveport, LA

Home | Current Version | Previous Version | Text Only | Print | Product List | Glossary On
Versions: 1 2 3 4 5 6 7 8 9 10 11 12 13 14
000
FTUS44 KSHV 272300
TAFLFK
TAF
KLFK 272320Z 2800/2824 VRB04KT P6SM SCT250
     FM281500 26005KT P6SM SCT060
     FM281800 26006KT P6SM VCTS BKN060CB=

USA.gov is the U.S. government's official web portal to all federal, state and local government web resources and services.